Time;durP1;ratioP1;P1;durP2;ratioP2;P2;SDS_P1;SDS_P2;PMS_P1;PMS_P2;Temp;Humidity;BMP_temperature;BMP_pressure;BME280_temperature;BME280_humidity;BME280_pressure;Samples;Min_cycle;Max_cycle;Signal;HPM_P1;HPM_P2
2021/07/20 00:00:45;;;;;;;12.98;10.38;;;19.50;99.90;;;;;;5056895;28;20283;-81
2021/07/20 00:03:11;;;;;;;14.60;11.25;;;19.60;99.90;;;;;;5083473;28;20639;-82
2021/07/20 00:05:43;;;;;;;19.42;11.10;;;19.60;99.90;;;;;;5077239;28;20170;-81
2021/07/20 00:08:10;;;;;;;19.77;11.93;;;19.60;99.90;;;;;;5094129;28;20300;-81
2021/07/20 00:10:41;;;;;;;17.17;11.63;;;19.50;99.90;;;;;;5095470;28;20182;-81
2021/07/20 00:13:07;;;;;;;16.67;11.77;;;19.50;99.90;;;;;;5093734;28;20218;-82
2021/07/20 00:15:34;;;;;;;14.68;11.73;;;19.60;99.90;;;;;;5095093;28;20162;-82
2021/07/20 00:18:10;;;;;;;15.02;11.65;;;19.70;99.90;;;;;;5086917;28;20614;-81
2021/07/20 00:20:37;;;;;;;13.50;11.10;;;19.70;99.90;;;;;;5057171;28;20163;-81
2021/07/20 00:23:04;;;;;;;19.83;11.45;;;19.60;99.90;;;;;;5034689;28;20170;-82
2021/07/20 00:25:30;;;;;;;15.75;11.88;;;19.50;99.90;;;;;;5095210;28;20166;-81
2021/07/20 00:27:56;;;;;;;16.15;12.05;;;19.50;99.90;;;;;;5069162;28;20360;-82
2021/07/20 00:30:22;;;;;;;16.42;12.15;;;19.50;99.90;;;;;;5078710;28;20165;-81
2021/07/20 00:32:48;;;;;;;13.30;11.18;;;19.30;99.90;;;;;;5074963;28;20754;-81
2021/07/20 00:35:14;;;;;;;19.05;11.75;;;19.10;99.90;;;;;;5095015;28;20166;-81
2021/07/20 00:37:41;;;;;;;15.32;12.82;;;19.20;99.90;;;;;;5094593;28;20166;-81
2021/07/20 00:40:09;;;;;;;25.05;12.80;;;19.30;99.90;;;;;;5094920;28;20166;-83
2021/07/20 00:42:35;;;;;;;17.70;12.00;;;19.20;99.90;;;;;;5083647;28;20171;-81
2021/07/20 00:45:03;;;;;;;16.45;12.90;;;19.20;99.90;;;;;;5052604;28;20175;-81
2021/07/20 00:47:29;;;;;;;16.55;12.02;;;19.10;99.90;;;;;;5058437;28;20178;-82
2021/07/20 00:49:55;;;;;;;15.07;12.02;;;19.10;99.90;;;;;;5094583;28;20189;-83
2021/07/20 00:52:20;;;;;;;17.92;12.85;;;19.10;99.90;;;;;;5069216;28;20178;-81
2021/07/20 00:54:46;;;;;;;23.08;12.50;;;19.20;99.90;;;;;;5063516;28;20628;-81
2021/07/20 00:57:12;;;;;;;18.92;12.45;;;19.10;99.90;;;;;;5094256;28;20667;-82
2021/07/20 00:59:40;;;;;;;16.65;12.82;;;19.00;99.90;;;;;;5077595;28;20249;-83
2021/07/20 01:02:06;;;;;;;14.43;11.63;;;19.00;99.90;;;;;;5094184;28;20205;-81
2021/07/20 01:04:32;;;;;;;16.88;12.48;;;19.00;99.90;;;;;;5058545;28;20174;-81
2021/07/20 01:07:00;;;;;;;23.42;13.25;;;19.00;99.90;;;;;;5075864;28;20182;-81
2021/07/20 01:09:27;;;;;;;17.27;12.82;;;19.10;99.90;;;;;;5077043;28;20285;-81
2021/07/20 01:11:53;;;;;;;21.20;12.75;;;19.20;99.90;;;;;;5093260;28;20628;-81
2021/07/20 01:14:19;;;;;;;14.40;12.13;;;19.30;99.90;;;;;;5094153;28;20634;-82
2021/07/20 01:16:46;;;;;;;17.10;12.32;;;19.20;99.90;;;;;;5070674;28;20194;-82
2021/07/20 01:19:14;;;;;;;21.92;13.65;;;19.10;99.90;;;;;;5094156;28;20170;-81
2021/07/20 01:21:42;;;;;;;16.63;12.73;;;19.00;99.90;;;;;;5075920;28;20206;-81
2021/07/20 01:24:10;;;;;;;20.35;12.43;;;18.90;99.90;;;;;;5093851;28;20249;-81
2021/07/20 01:26:36;;;;;;;15.13;13.13;;;18.90;99.90;;;;;;5068555;28;20171;-81
2021/07/20 01:29:03;;;;;;;21.13;12.52;;;18.90;99.90;;;;;;5073608;28;20212;-82
2021/07/20 01:31:31;;;;;;;15.75;12.85;;;18.90;99.90;;;;;;5056073;28;20167;-81
2021/07/20 01:34:00;;;;;;;19.35;14.07;;;18.80;99.90;;;;;;5073748;28;20163;-84
2021/07/20 01:36:28;;;;;;;22.45;13.32;;;18.70;99.90;;;;;;5058994;28;20230;-83
2021/07/20 01:38:55;;;;;;;22.88;13.40;;;18.60;99.90;;;;;;5071169;28;20174;-81
2021/07/20 01:41:21;;;;;;;16.95;13.43;;;18.80;99.90;;;;;;5073762;28;20178;-84
2021/07/20 01:43:59;;;;;;;21.50;13.45;;;18.70;99.90;;;;;;5073573;28;20179;-82
2021/07/20 01:46:29;;;;;;;20.38;13.15;;;18.70;99.90;;;;;;5073556;28;20187;-81
2021/07/20 01:48:56;;;;;;;15.07;12.82;;;18.60;99.90;;;;;;5073534;28;20664;-81
2021/07/20 01:51:23;;;;;;;19.35;12.85;;;18.50;99.90;;;;;;5022607;28;20586;-82
2021/07/20 01:53:50;;;;;;;16.60;13.15;;;18.40;99.90;;;;;;5055509;28;20516;-81
2021/07/20 01:56:17;;;;;;;19.55;13.40;;;18.60;99.90;;;;;;5074238;28;20173;-82
2021/07/20 01:58:43;;;;;;;17.90;13.27;;;18.60;99.90;;;;;;5089060;28;20225;-80
2021/07/20 02:01:25;;;;;;;18.25;13.23;;;18.60;99.90;;;;;;5055453;28;20198;-81
2021/07/20 02:04:19;;;;;;;17.85;13.50;;;18.50;99.90;;;;;;5077364;28;20308;-80
2021/07/20 02:09:33;;;;;;;20.05;13.50;;;18.60;99.90;;;;;;5073124;28;20259;-81
2021/07/20 02:12:08;;;;;;;23.48;13.88;;;18.70;99.90;;;;;;5055272;28;20536;-82
2021/07/20 02:14:41;;;;;;;16.33;12.13;;;18.70;99.90;;;;;;5039935;28;20605;-81
2021/07/20 02:17:09;;;;;;;16.60;12.70;;;18.60;99.90;;;;;;5075257;28;20222;-81
2021/07/20 02:19:40;;;;;;;27.17;14.43;;;18.40;99.90;;;;;;5078775;28;21473;-83
2021/07/20 02:22:07;;;;;;;20.17;13.88;;;18.30;99.90;;;;;;5093208;28;20242;-80
2021/07/20 02:24:34;;;;;;;15.40;12.85;;;18.10;99.90;;;;;;5078819;28;20178;-81
2021/07/20 02:27:03;;;;;;;19.98;13.63;;;18.10;99.90;;;;;;5059778;28;20231;-81
2021/07/20 02:29:30;;;;;;;17.67;13.75;;;18.00;99.90;;;;;;5059064;28;20201;-81
2021/07/20 02:31:59;;;;;;;17.23;13.00;;;17.90;99.90;;;;;;5060382;28;20220;-81
2021/07/20 02:34:26;;;;;;;19.80;12.88;;;17.90;99.90;;;;;;5076718;28;20205;-81
2021/07/20 02:36:54;;;;;;;17.25;11.43;;;17.90;99.90;;;;;;5077064;28;20181;-81
2021/07/20 02:39:21;;;;;;;16.55;12.07;;;17.80;99.90;;;;;;5076853;28;20258;-80
2021/07/20 02:41:49;;;;;;;15.65;12.77;;;17.70;99.90;;;;;;5077225;28;20173;-81
2021/07/20 02:44:16;;;;;;;20.20;13.57;;;17.60;99.90;;;;;;5076770;28;20182;-81
2021/07/20 02:46:43;;;;;;;21.02;12.80;;;17.50;99.90;;;;;;5081622;28;20177;-81
2021/07/20 02:49:10;;;;;;;18.02;11.63;;;17.50;99.90;;;;;;5058771;28;20198;-81
2021/07/20 02:51:36;;;;;;;20.58;11.70;;;17.50;99.90;;;;;;5058670;28;20190;-81
2021/07/20 02:54:02;;;;;;;13.98;11.40;;;17.50;99.90;;;;;;5058572;28;20249;-81
2021/07/20 02:56:29;;;;;;;15.40;11.90;;;17.50;99.90;;;;;;5050791;28;20178;-81
2021/07/20 02:59:00;;;;;;;19.10;12.55;;;17.40;99.90;;;;;;5078460;28;20201;-81
2021/07/20 03:01:27;;;;;;;18.38;11.40;;;17.40;99.90;;;;;;5096001;28;20635;-82
2021/07/20 03:03:53;;;;;;;17.48;11.35;;;17.50;99.90;;;;;;5096811;28;20207;-80
2021/07/20 03:06:23;;;;;;;16.35;11.93;;;17.50;99.90;;;;;;5093377;28;20636;-81
2021/07/20 03:08:51;;;;;;;15.93;11.05;;;17.50;99.90;;;;;;5084414;28;20207;-81
2021/07/20 03:11:17;;;;;;;14.75;11.25;;;17.40;99.90;;;;;;5076346;28;20195;-81
2021/07/20 03:13:50;;;;;;;17.00;12.68;;;17.30;99.90;;;;;;5058381;28;20170;-80
2021/07/20 03:16:16;;;;;;;20.40;11.40;;;17.20;99.90;;;;;;5082321;28;20643;-81
2021/07/20 03:18:44;;;;;;;16.52;12.30;;;17.20;99.90;;;;;;5078286;28;20174;-81
2021/07/20 03:21:11;;;;;;;20.25;11.70;;;17.10;99.90;;;;;;5083531;28;20173;-81
2021/07/20 03:23:38;;;;;;;16.88;12.50;;;17.10;99.90;;;;;;5058686;28;20206;-81
2021/07/20 03:26:05;;;;;;;15.57;11.02;;;17.10;99.90;;;;;;5054656;28;20227;-82
2021/07/20 03:28:32;;;;;;;17.48;11.85;;;17.00;99.90;;;;;;5078123;28;20197;-81
2021/07/20 03:30:59;;;;;;;18.77;12.02;;;17.00;99.90;;;;;;5067245;28;20208;-81
2021/07/20 03:33:26;;;;;;;18.30;11.60;;;17.00;99.90;;;;;;5041371;28;20222;-81
2021/07/20 03:35:53;;;;;;;16.55;12.07;;;17.00;99.90;;;;;;5074887;28;20655;-82
2021/07/20 03:38:20;;;;;;;14.10;11.63;;;16.90;99.90;;;;;;5075917;28;20183;-81
2021/07/20 03:40:50;;;;;;;14.02;12.00;;;16.90;99.90;;;;;;5076246;28;20270;-82
2021/07/20 03:43:17;;;;;;;14.88;11.35;;;16.90;99.90;;;;;;5057959;28;20171;-81
2021/07/20 03:45:44;;;;;;;16.60;11.60;;;16.90;99.90;;;;;;5075726;28;20174;-81
2021/07/20 03:48:13;;;;;;;23.42;11.63;;;16.90;99.90;;;;;;5059113;28;20206;-81
2021/07/20 03:50:44;;;;;;;21.17;11.80;;;16.90;99.90;;;;;;5075962;28;20214;-82
2021/07/20 03:53:12;;;;;;;20.70;11.55;;;17.00;99.90;;;;;;5057715;28;20877;-81
2021/07/20 03:55:42;;;;;;;18.08;12.05;;;17.00;99.90;;;;;;5057390;28;20171;-81
2021/07/20 03:58:08;;;;;;;19.45;12.43;;;17.10;99.90;;;;;;5070351;28;20186;-81
2021/07/20 04:00:35;;;;;;;16.50;11.45;;;17.20;99.90;;;;;;5057302;28;20189;-81
2021/07/20 04:05:49;;;;;;;15.20;11.48;;;17.40;99.90;;;;;;5060292;28;20549;-81
2021/07/20 04:08:18;;;;;;;17.92;11.55;;;17.30;99.90;;;;;;5071499;28;20343;-83
2021/07/20 04:10:46;;;;;;;17.02;12.45;;;17.20;99.90;;;;;;5076149;28;20579;-81
2021/07/20 04:13:13;;;;;;;18.67;12.50;;;17.20;99.90;;;;;;5057328;28;20170;-81
2021/07/20 04:15:54;;;;;;;27.02;13.38;;;17.30;99.90;;;;;;5057263;28;20175;-81
2021/07/20 04:18:21;;;;;;;16.27;12.52;;;17.40;99.90;;;;;;5057010;28;20175;-81
2021/07/20 04:20:47;;;;;;;12.70;11.38;;;17.50;99.90;;;;;;5057324;28;20171;-81
2021/07/20 04:23:15;;;;;;;18.10;11.55;;;17.50;99.90;;;;;;5078526;28;20173;-81
2021/07/20 04:25:43;;;;;;;18.92;11.00;;;17.60;99.90;;;;;;5077169;28;20188;-81
2021/07/20 04:28:10;;;;;;;13.07;11.13;;;17.60;99.90;;;;;;5076915;28;20289;-81
2021/07/20 04:30:45;;;;;;;18.17;11.77;;;17.60;99.90;;;;;;5094729;28;20170;-81
2021/07/20 04:33:14;;;;;;;13.23;11.20;;;17.70;99.90;;;;;;5095176;28;20150;-81
2021/07/20 04:35:40;;;;;;;16.25;11.35;;;17.90;99.90;;;;;;5076794;28;20185;-81
2021/07/20 04:38:09;;;;;;;16.30;11.50;;;18.10;99.90;;;;;;5076315;28;20632;-81
2021/07/20 04:40:37;;;;;;;13.60;10.95;;;18.20;99.90;;;;;;5094932;28;20194;-80
2021/07/20 04:43:02;;;;;;;20.65;11.85;;;18.30;99.90;;;;;;5076763;28;20235;-80
2021/07/20 04:45:28;;;;;;;16.20;10.75;;;18.40;99.90;;;;;;5059866;28;20650;-82
2021/07/20 04:47:54;;;;;;;19.35;11.55;;;18.40;99.90;;;;;;5075309;28;20682;-81
2021/07/20 04:50:20;;;;;;;19.05;11.13;;;18.50;99.90;;;;;;5056459;28;20220;-82
2021/07/20 04:52:46;;;;;;;15.05;10.90;;;18.50;99.90;;;;;;5074676;28;20288;-81
2021/07/20 04:55:14;;;;;;;13.38;10.77;;;18.60;99.90;;;;;;5040070;28;20538;-81
2021/07/20 04:57:39;;;;;;;12.18;10.70;;;18.90;99.90;;;;;;5057103;28;20179;-81
2021/07/20 05:00:08;;;;;;;12.00;10.45;;;19.20;99.90;;;;;;5081647;28;20177;-82
2021/07/20 05:02:38;;;;;;;52.80;13.90;;;19.40;99.90;;;;;;5094436;28;20173;-81
2021/07/20 05:05:06;;;;;;;12.15;10.85;;;19.50;99.90;;;;;;5076282;28;20174;-81
2021/07/20 05:07:31;;;;;;;15.52;11.52;;;19.90;99.90;;;;;;5071157;28;20179;-81
2021/07/20 05:09:58;;;;;;;20.48;10.60;;;20.40;99.90;;;;;;5056299;28;20281;-80
2021/07/20 05:12:25;;;;;;;15.57;9.98;;;21.20;99.90;;;;;;5074056;28;20163;-81
2021/07/20 05:14:51;;;;;;;13.23;10.77;;;21.90;99.90;;;;;;5073878;28;20167;-81
2021/07/20 05:17:19;;;;;;;11.32;9.75;;;22.70;99.90;;;;;;5076303;28;20270;-81
2021/07/20 05:19:46;;;;;;;15.95;9.98;;;22.70;99.90;;;;;;5078504;28;20232;-81
2021/07/20 05:22:13;;;;;;;12.65;9.60;;;23.10;99.90;;;;;;5073902;28;20625;-81
2021/07/20 05:24:39;;;;;;;11.82;10.07;;;23.90;99.90;;;;;;5055979;28;20202;-81
2021/07/20 05:27:05;;;;;;;14.20;10.02;;;24.30;99.90;;;;;;5073682;28;20638;-81
2021/07/20 05:29:32;;;;;;;12.68;9.93;;;24.60;99.90;;;;;;5087213;28;20289;-81
2021/07/20 05:31:59;;;;;;;13.70;10.15;;;24.30;99.90;;;;;;5055878;28;20186;-81
2021/07/20 05:34:25;;;;;;;23.85;10.55;;;24.20;99.90;;;;;;5061189;28;20524;-82
2021/07/20 05:36:51;;;;;;;11.13;9.95;;;24.60;99.90;;;;;;5075827;28;20174;-81
2021/07/20 05:39:16;;;;;;;11.10;10.05;;;25.10;99.90;;;;;;5059057;28;20579;-81
2021/07/20 05:41:43;;;;;;;13.25;11.05;;;25.00;99.90;;;;;;5075744;28;20275;-85
2021/07/20 05:44:16;;;;;;;16.48;10.75;;;25.60;99.90;;;;;;5093209;28;20644;-81
2021/07/20 05:46:43;;;;;;;11.32;9.40;;;26.20;99.90;;;;;;5076060;28;20181;-81
2021/07/20 05:49:12;;;;;;;12.55;9.80;;;26.00;99.90;;;;;;5058892;28;20296;-82
2021/07/20 05:51:39;;;;;;;11.48;9.52;;;26.40;99.90;;;;;;5075770;28;20194;-82
2021/07/20 05:54:06;;;;;;;15.20;10.38;;;26.90;99.90;;;;;;5091959;28;20303;-82
2021/07/20 05:56:33;;;;;;;12.27;10.30;;;27.10;99.90;;;;;;5091874;28;20304;-82
2021/07/20 05:59:00;;;;;;;11.35;10.25;;;26.80;99.90;;;;;;5092774;28;20194;-81
2021/07/20 06:01:27;;;;;;;11.63;10.43;;;27.60;99.90;;;;;;5075975;28;20166;-81
2021/07/20 06:03:57;;;;;;;11.75;10.18;;;28.10;99.90;;;;;;5093503;28;20174;-82
2021/07/20 06:06:28;;;;;;;16.60;10.07;;;27.90;99.90;;;;;;5055425;28;20261;-81
2021/07/20 06:08:55;;;;;;;16.23;10.75;;;27.70;99.90;;;;;;5038920;28;20234;-82
2021/07/20 06:11:22;;;;;;;12.07;10.88;;;28.30;99.90;;;;;;5039203;28;20573;-82
2021/07/20 06:13:49;;;;;;;11.07;9.70;;;28.60;99.90;;;;;;5038946;28;20305;-82
2021/07/20 06:16:15;;;;;;;13.73;9.95;;;28.00;99.90;;;;;;5054155;28;20209;-81
2021/07/20 06:18:41;;;;;;;10.65;9.55;;;27.20;99.90;;;;;;5069874;28;20178;-81
2021/07/20 06:21:11;;;;;;;14.48;10.75;;;28.00;99.90;;;;;;5075510;28;20162;-81
2021/07/20 06:23:42;;;;;;;12.18;10.93;;;29.10;99.90;;;;;;5075131;28;20174;-81
2021/07/20 06:26:08;;;;;;;16.25;9.48;;;28.00;99.90;;;;;;5091937;28;20249;-82
2021/07/20 06:28:39;;;;;;;10.98;9.75;;;28.50;99.90;;;;;;5072934;28;20202;-82
2021/07/20 06:31:05;;;;;;;11.55;10.43;;;28.90;99.90;;;;;;5073451;28;20654;-82
2021/07/20 06:33:33;;;;;;;15.82;11.40;;;28.90;99.90;;;;;;5054886;28;20206;-82
2021/07/20 06:36:00;;;;;;;10.57;9.35;;;29.00;99.90;;;;;;5089289;28;20173;-81
2021/07/20 06:38:26;;;;;;;17.00;10.90;;;30.30;99.90;;;;;;5092799;28;20532;-82
2021/07/20 06:40:54;;;;;;;11.63;10.52;;;30.70;99.90;;;;;;5092994;28;20696;-82
2021/07/20 06:43:21;;;;;;;13.35;10.30;;;28.90;99.90;;;;;;5093279;28;20173;-81
2021/07/20 06:45:49;;;;;;;11.60;10.45;;;28.70;99.90;;;;;;5093215;28;20170;-82
2021/07/20 06:48:19;;;;;;;14.00;10.82;;;28.70;99.90;;;;;;5075841;28;20205;-81
2021/07/20 06:50:50;;;;;;;11.63;10.07;;;30.10;99.90;;;;;;5073928;28;20258;-84
2021/07/20 06:53:16;;;;;;;10.82;9.68;;;32.00;99.90;;;;;;5093210;28;20154;-82
2021/07/20 06:55:59;;;;;;;13.27;10.00;;;33.00;99.90;;;;;;5074677;28;20178;-81
2021/07/20 06:58:27;;;;;;;12.35;10.10;;;33.10;99.90;;;;;;5093071;28;20631;-81
2021/07/20 07:00:56;;;;;;;12.50;10.30;;;34.30;99.80;;;;;;5073078;28;20173;-82
2021/07/20 07:03:38;;;;;;;9.18;8.43;;;34.50;98.00;;;;;;5054794;28;20175;-82
2021/07/20 07:06:05;;;;;;;10.57;9.48;;;34.10;97.30;;;;;;5072747;28;20173;-82
2021/07/20 07:08:32;;;;;;;10.85;8.60;;;32.90;97.30;;;;;;5082372;28;20229;-81
2021/07/20 07:10:59;;;;;;;9.77;8.77;;;33.30;98.30;;;;;;5095394;28;20172;-83
2021/07/20 07:13:27;;;;;;;10.32;9.45;;;34.70;95.70;;;;;;5078503;28;20170;-81
2021/07/20 07:15:55;;;;;;;12.20;9.77;;;36.30;94.20;;;;;;5083703;28;20258;-80
2021/07/20 07:18:23;;;;;;;9.23;7.95;;;37.00;93.10;;;;;;5076526;28;20178;-83
2021/07/20 07:20:50;;;;;;;11.05;7.78;;;37.40;91.40;;;;;;5076137;28;20184;-82
2021/07/20 07:23:18;;;;;;;9.45;8.55;;;35.30;91.10;;;;;;5042154;28;20623;-83
2021/07/20 07:25:49;;;;;;;8.98;8.18;;;36.10;91.00;;;;;;5079977;28;20620;-83
2021/07/20 07:28:16;;;;;;;9.57;8.48;;;37.20;90.90;;;;;;5059480;28;20205;-84
2021/07/20 07:30:43;;;;;;;10.68;9.57;;;36.30;90.40;;;;;;5088801;28;20269;-82
2021/07/20 07:33:09;;;;;;;14.13;8.82;;;36.50;90.40;;;;;;5075844;28;20210;-83
2021/07/20 07:35:36;;;;;;;12.95;9.65;;;36.30;90.80;;;;;;5059551;28;20170;-83
2021/07/20 07:38:02;;;;;;;12.65;10.00;;;37.20;88.90;;;;;;5094519;28;20264;-82
2021/07/20 07:40:29;;;;;;;14.38;9.80;;;36.70;89.70;;;;;;5078263;28;20639;-82
2021/07/20 07:42:58;;;;;;;10.32;9.30;;;37.70;87.10;;;;;;5084771;28;20170;-82
2021/07/20 07:45:24;;;;;;;9.02;8.25;;;37.90;85.80;;;;;;5067024;28;20742;-83
2021/07/20 07:47:51;;;;;;;10.65;9.55;;;38.40;85.70;;;;;;5075723;28;20258;-82
2021/07/20 07:50:18;;;;;;;12.05;9.52;;;39.10;82.70;;;;;;5059773;28;20202;-81
2021/07/20 07:52:44;;;;;;;10.48;9.25;;;39.10;82.90;;;;;;5041074;28;20507;-82
2021/07/20 07:55:11;;;;;;;9.38;8.43;;;39.10;80.90;;;;;;5065426;28;20181;-82
2021/07/20 07:57:39;;;;;;;9.52;8.50;;;38.60;81.60;;;;;;5077625;28;20643;-84
2021/07/20 08:00:08;;;;;;;10.10;9.18;;;38.40;81.60;;;;;;5095820;28;20162;-83
2021/07/20 08:02:35;;;;;;;11.10;9.20;;;39.00;79.50;;;;;;5075747;28;20166;-83
2021/07/20 08:05:04;;;;;;;8.60;7.75;;;39.20;80.00;;;;;;5056928;28;20224;-83
2021/07/20 08:07:31;;;;;;;8.65;7.85;;;39.50;81.80;;;;;;5057524;28;20176;-82
2021/07/20 08:09:57;;;;;;;9.75;8.30;;;40.10;77.90;;;;;;5075274;28;20648;-82
2021/07/20 08:12:24;;;;;;;10.30;8.40;;;40.70;77.20;;;;;;5075310;28;20568;-83
2021/07/20 08:14:50;;;;;;;9.23;8.50;;;40.60;75.10;;;;;;5079894;28;20173;-82
2021/07/20 08:17:17;;;;;;;9.82;8.82;;;38.10;75.70;;;;;;5077209;28;20679;-82
2021/07/20 08:19:44;;;;;;;9.68;8.30;;;38.40;77.20;;;;;;5077237;28;20170;-89
2021/07/20 08:22:14;;;;;;;9.43;8.52;;;38.80;78.90;;;;;;5055525;28;20613;-86
2021/07/20 08:25:09;;;;;;;9.35;8.38;;;40.10;76.00;;;;;;5056209;28;20178;-82
2021/07/20 08:28:04;;;;;;;11.15;8.23;;;40.70;73.10;;;;;;5031812;28;20178;-83
2021/07/20 08:30:50;;;;;;;11.23;8.80;;;38.60;73.90;;;;;;5067304;28;20189;-83
2021/07/20 08:33:20;;;;;;;14.13;9.13;;;39.20;75.00;;;;;;5092760;28;20206;-83
2021/07/20 08:35:48;;;;;;;11.77;7.55;;;40.30;74.80;;;;;;5082749;28;20253;-82
2021/07/20 08:38:15;;;;;;;8.45;7.63;;;41.10;73.30;;;;;;5056439;28;20182;-84
2021/07/20 08:40:49;;;;;;;10.45;8.60;;;41.50;71.30;;;;;;5074290;28;20219;-84
2021/07/20 08:43:51;;;;;;;12.88;9.05;;;38.10;73.90;;;;;;5074393;28;20165;-84
2021/07/20 08:46:28;;;;;;;10.45;9.35;;;39.70;74.60;;;;;;5074834;28;20511;-84
2021/07/20 08:48:58;;;;;;;10.88;8.82;;;41.00;72.70;;;;;;5055356;28;20190;-84
2021/07/20 08:51:37;;;;;;;10.73;8.88;;;42.60;70.30;;;;;;5085358;28;20170;-83
2021/07/20 08:54:13;;;;;;;15.05;8.57;;;42.50;67.60;;;;;;5094550;28;20154;-84
2021/07/20 08:56:43;;;;;;;10.55;8.60;;;42.90;69.10;;;;;;5075503;28;20193;-83
2021/07/20 08:59:13;;;;;;;13.27;8.80;;;41.00;69.80;;;;;;5094896;28;20189;-83
2021/07/20 09:02:16;;;;;;;11.80;8.88;;;40.10;72.10;;;;;;5094376;28;20221;-84
2021/07/20 09:04:48;;;;;;;10.13;7.72;;;41.90;69.70;;;;;;5094257;28;20245;-83
2021/07/20 09:07:16;;;;;;;8.63;7.80;;;42.80;69.50;;;;;;5075304;28;20174;-84
2021/07/20 09:09:57;;;;;;;10.52;9.02;;;43.30;70.10;;;;;;5073720;28;20205;-83
2021/07/20 09:12:28;;;;;;;12.20;8.82;;;43.80;67.70;;;;;;5056332;28;20166;-83
2021/07/20 09:15:08;;;;;;;9.95;7.93;;;44.10;67.10;;;;;;5074308;28;20245;-83
2021/07/20 09:17:39;;;;;;;10.20;8.48;;;43.90;66.30;;;;;;5075079;28;20272;-84
2021/07/20 09:20:38;;;;;;;9.63;8.50;;;44.30;66.30;;;;;;5073381;28;20178;-80
2021/07/20 09:23:14;;;;;;;9.05;8.18;;;44.10;63.80;;;;;;5032311;28;20198;-88
2021/07/20 09:25:52;;;;;;;10.80;9.70;;;44.20;66.20;;;;;;5073721;28;20241;-85
2021/07/20 09:28:36;;;;;;;9.25;8.32;;;44.00;64.50;;;;;;5076019;28;20579;-85
2021/07/20 09:31:16;;;;;;;8.23;7.53;;;44.30;63.60;;;;;;5055979;28;20166;-88
2021/07/20 09:34:13;;;;;;;9.02;8.10;;;44.50;64.90;;;;;;5054973;28;20636;-83
2021/07/20 09:36:47;;;;;;;10.65;8.95;;;44.70;62.90;;;;;;5041421;28;20185;-83
2021/07/20 09:39:35;;;;;;;12.55;7.32;;;44.90;62.30;;;;;;5074767;28;20166;-82
2021/07/20 09:42:32;;;;;;;15.35;7.90;;;44.60;64.40;;;;;;5055292;28;20656;-83
2021/07/20 09:45:39;;;;;;;10.70;7.35;;;44.30;63.60;;;;;;5055642;28;20170;-85
2021/07/20 09:48:24;;;;;;;8.75;6.95;;;44.30;62.60;;;;;;5035318;28;20304;-85
2021/07/20 09:51:22;;;;;;;12.00;7.80;;;44.00;62.80;;;;;;5072632;28;20184;-85
2021/07/20 09:54:22;;;;;;;7.80;7.10;;;43.30;62.00;;;;;;5074802;28;20166;-84
2021/07/20 09:57:11;;;;;;;8.00;6.35;;;41.70;65.00;;;;;;5083254;28;20166;-84
2021/07/20 09:59:53;;;;;;;10.52;7.72;;;40.80;66.80;;;;;;5085044;28;20217;-85
2021/07/20 10:02:46;;;;;;;14.05;7.95;;;39.40;68.50;;;;;;5075541;28;20499;-83
2021/07/20 10:05:13;;;;;;;12.40;7.78;;;37.80;72.20;;;;;;5092975;28;20173;-83
2021/07/20 10:07:56;;;;;;;8.40;7.53;;;39.00;71.90;;;;;;5075104;28;20670;-84
2021/07/20 10:10:42;;;;;;;8.40;7.35;;;39.50;69.50;;;;;;5062532;28;20174;-83
2021/07/20 10:13:20;;;;;;;7.82;7.10;;;41.80;66.40;;;;;;5073660;28;20250;-83
2021/07/20 10:16:08;;;;;;;9.70;8.32;;;42.70;65.20;;;;;;5073408;28;20150;-83
2021/07/20 10:18:50;;;;;;;8.75;7.30;;;39.70;68.20;;;;;;5084791;28;20203;-84
2021/07/20 10:21:20;;;;;;;12.30;7.38;;;41.50;68.30;;;;;;5073571;28;20178;-83
2021/07/20 10:23:54;;;;;;;7.55;6.75;;;43.20;66.00;;;;;;5081623;28;20228;-82
2021/07/20 10:26:26;;;;;;;10.48;7.90;;;42.40;65.40;;;;;;5081976;28;20186;-83
2021/07/20 10:29:04;;;;;;;10.77;7.38;;;40.90;67.30;;;;;;5068196;28;20208;-81
2021/07/20 10:31:48;;;;;;;9.32;7.63;;;41.50;65.10;;;;;;5074003;28;20261;-80
2021/07/20 10:34:17;;;;;;;8.73;7.22;;;41.70;67.20;;;;;;5055050;28;20159;-79
2021/07/20 10:36:57;;;;;;;15.60;7.75;;;41.90;65.60;;;;;;5072414;28;20177;-80
2021/07/20 10:39:34;;;;;;;8.30;7.53;;;43.00;65.50;;;;;;5055111;28;20174;-80
2021/07/20 10:42:10;;;;;;;8.30;6.75;;;42.50;64.50;;;;;;5060358;28;20181;-81
2021/07/20 10:44:58;;;;;;;10.50;8.55;;;40.70;68.60;;;;;;5076713;28;20161;-79
2021/07/20 10:47:31;;;;;;;9.52;8.63;;;40.80;67.50;;;;;;5097107;28;20157;-80
2021/07/20 10:50:04;;;;;;;9.88;8.40;;;40.60;69.30;;;;;;5078772;28;20643;-85
2021/07/20 10:52:50;;;;;;;8.48;7.70;;;39.90;66.90;;;;;;5076936;28;20166;-86
2021/07/20 10:55:45;;;;;;;7.53;6.82;;;40.00;68.80;;;;;;5098344;28;20181;-88
2021/07/20 10:58:22;;;;;;;12.10;7.43;;;40.50;68.50;;;;;;5081847;28;20196;-83
2021/07/20 11:01:26;;;;;;;8.32;7.32;;;41.70;67.50;;;;;;5067823;28;20651;-84
2021/07/20 11:04:01;;;;;;;9.65;7.20;;;42.30;66.30;;;;;;5022025;28;20870;-83
2021/07/20 11:06:28;;;;;;;12.55;7.93;;;40.80;67.70;;;;;;5065202;28;20174;-84
2021/07/20 11:09:00;;;;;;;8.35;7.57;;;40.30;68.40;;;;;;5077107;28;20570;-82
2021/07/20 11:11:29;;;;;;;11.00;8.45;;;41.80;66.80;;;;;;5077437;28;20158;-82
2021/07/20 11:13:58;;;;;;;8.25;6.85;;;42.10;64.70;;;;;;5090991;28;20173;-83
2021/07/20 11:16:25;;;;;;;12.82;7.90;;;42.40;65.40;;;;;;5095372;28;20201;-83
2021/07/20 11:18:52;;;;;;;8.77;7.63;;;38.80;70.60;;;;;;5095481;28;20174;-87
2021/07/20 11:21:23;;;;;;;8.80;7.22;;;38.90;71.00;;;;;;5095403;28;20174;-80
2021/07/20 11:23:51;;;;;;;14.25;6.82;;;40.10;67.80;;;;;;5074659;28;20235;-87
2021/07/20 11:26:18;;;;;;;7.95;6.43;;;41.60;68.30;;;;;;5095293;28;20252;-82
2021/07/20 11:28:45;;;;;;;10.23;6.57;;;42.00;66.10;;;;;;5077122;28;20206;-82
2021/07/20 11:31:19;;;;;;;11.57;7.68;;;43.10;66.30;;;;;;5094305;28;20181;-81
2021/07/20 11:33:50;;;;;;;7.88;6.65;;;43.50;65.70;;;;;;5095136;28;20161;-80
2021/07/20 11:36:22;;;;;;;8.73;7.95;;;43.80;64.70;;;;;;5084570;28;20213;-80
2021/07/20 11:38:53;;;;;;;8.82;7.63;;;42.20;64.80;;;;;;5076132;28;20304;-79
2021/07/20 11:41:36;;;;;;;9.18;7.47;;;41.10;67.00;;;;;;5075813;28;20167;-81
2021/07/20 11:44:25;;;;;;;9.30;7.90;;;41.00;67.60;;;;;;5075901;28;20668;-81
2021/07/20 11:47:12;;;;;;;9.23;7.50;;;39.60;70.80;;;;;;5058135;28;20612;-80
2021/07/20 11:50:05;;;;;;;10.80;7.97;;;39.80;69.80;;;;;;5076133;28;20218;-84
2021/07/20 11:52:43;;;;;;;8.38;7.57;;;39.50;69.80;;;;;;5076233;28;20157;-82
2021/07/20 11:55:39;;;;;;;10.75;7.22;;;39.60;70.10;;;;;;5062287;28;20180;-80
2021/07/20 11:58:49;;;;;;;8.38;7.57;;;39.30;71.40;;;;;;5075360;28;20178;-80
2021/07/20 12:01:50;;;;;;;15.60;7.85;;;36.60;76.10;;;;;;5075516;28;20151;-81
2021/07/20 12:04:48;;;;;;;10.77;7.18;;;35.90;76.70;;;;;;5015501;28;20647;-83
2021/07/20 12:07:24;;;;;;;8.65;6.65;;;35.90;76.50;;;;;;5083172;28;20189;-85
2021/07/20 12:10:08;;;;;;;7.85;5.88;;;36.20;75.80;;;;;;5095566;28;20187;-80
2021/07/20 12:12:49;;;;;;;7.78;6.75;;;38.00;73.50;;;;;;5092643;28;20157;-81
2021/07/20 12:15:19;;;;;;;10.75;6.93;;;38.70;73.90;;;;;;5060907;28;20192;-81
2021/07/20 12:17:45;;;;;;;12.60;7.10;;;38.10;70.70;;;;;;5086367;28;20168;-84
2021/07/20 12:20:14;;;;;;;11.02;7.85;;;38.10;71.60;;;;;;5081511;28;20178;-84
2021/07/20 12:22:40;;;;;;;7.82;6.97;;;37.30;72.70;;;;;;5094700;28;20597;-83
2021/07/20 12:25:08;;;;;;;8.18;7.43;;;38.20;73.30;;;;;;5061984;28;20206;-84
2021/07/20 12:27:35;;;;;;;9.57;7.72;;;38.60;72.00;;;;;;5075200;28;20163;-87
2021/07/20 12:30:02;;;;;;;7.70;6.82;;;37.30;73.50;;;;;;5058610;28;20198;-85
2021/07/20 12:32:30;;;;;;;13.98;7.85;;;35.00;75.70;;;;;;5074974;28;20197;-87
2021/07/20 12:34:58;;;;;;;9.38;7.72;;;32.20;80.70;;;;;;5086175;28;20180;-86
2021/07/20 12:37:24;;;;;;;7.93;7.13;;;31.30;83.50;;;;;;5083465;28;20181;-82
2021/07/20 12:39:54;;;;;;;8.48;7.78;;;30.50;87.70;;;;;;5058932;28;20170;-84
2021/07/20 12:42:22;;;;;;;15.82;8.10;;;30.30;88.60;;;;;;5075278;28;20182;-87
2021/07/20 12:45:09;;;;;;;13.60;7.50;;;30.20;87.00;;;;;;5074719;28;20223;-85
2021/07/20 12:47:40;;;;;;;10.50;7.95;;;30.40;86.40;;;;;;5076513;28;20237;-87
2021/07/20 12:50:07;;;;;;;11.45;8.02;;;30.60;87.20;;;;;;5076114;28;20197;-86
2021/07/20 12:52:38;;;;;;;12.73;7.07;;;30.40;89.60;;;;;;5074161;28;20173;-88
2021/07/20 12:55:23;;;;;;;7.65;6.95;;;29.80;87.60;;;;;;5094990;28;20177;-88
2021/07/20 12:57:52;;;;;;;8.80;6.82;;;29.60;89.30;;;;;;5074768;28;20211;-83
2021/07/20 13:00:28;;;;;;;10.52;7.28;;;29.60;89.50;;;;;;5071389;28;20182;-83